Time;durP1;ratioP1;P1;durP2;ratioP2;P2;SDS_P1;SDS_P2;PMS_P1;PMS_P2;Temp;Humidity;BMP_temperature;BMP_pressure;BME280_temperature;BME280_humidity;BME280_pressure;Samples;Min_cycle;Max_cycle;Signal;HPM_P1;HPM_P2
2023/02/09 00:00:21;;;;;;;9.80;4.95;;;;;;;;;;5087879;28;20039;-46
2023/02/09 00:02:47;;;;;;;10.35;5.25;;;;;;;;;;5087069;28;20056;-47
2023/02/09 00:05:14;;;;;;;9.20;4.97;;;;;;;;;;5084993;28;20557;-47
2023/02/09 00:07:40;;;;;;;9.13;5.57;;;;;;;;;;5087640;28;20028;-46
2023/02/09 00:10:06;;;;;;;9.32;5.45;;;;;;;;;;5085952;28;20506;-50
2023/02/09 00:15:18;;;;;;;11.60;6.00;;;;;;;;;;5086858;28;20493;-46
2023/02/09 00:17:44;;;;;;;9.65;5.63;;;;;;;;;;5086863;28;20036;-49
2023/02/09 00:20:10;;;;;;;10.40;6.05;;;;;;;;;;5086494;28;20090;-46
2023/02/09 00:22:37;;;;;;;10.18;6.13;;;;;;;;;;5086576;28;20085;-48
2023/02/09 00:25:04;;;;;;;9.85;5.28;;;;;;;;;;5086733;28;20028;-46
2023/02/09 00:27:34;;;;;;;10.82;6.10;;;;;;;;;;5086204;28;20028;-47
2023/02/09 00:30:01;;;;;;;11.32;6.35;;;;;;;;;;5086572;28;20054;-46
2023/02/09 00:32:27;;;;;;;9.35;5.43;;;;;;;;;;5086758;28;20036;-48
2023/02/09 00:34:54;;;;;;;10.27;5.97;;;;;;;;;;5086401;28;20028;-46
2023/02/09 00:37:20;;;;;;;11.48;6.40;;;;;;;;;;5086410;28;20020;-50
2023/02/09 00:39:46;;;;;;;11.68;7.10;;;;;;;;;;5086465;28;20103;-50
2023/02/09 00:42:12;;;;;;;13.50;6.78;;;;;;;;;;5085681;28;20506;-47
2023/02/09 00:44:39;;;;;;;12.25;7.22;;;;;;;;;;5086314;28;20062;-51
2023/02/09 00:47:06;;;;;;;11.30;6.72;;;;;;;;;;5086517;28;20035;-49
2023/02/09 00:49:33;;;;;;;14.23;7.70;;;;;;;;;;5085762;28;20495;-47
2023/02/09 00:51:59;;;;;;;12.82;6.95;;;;;;;;;;5086534;28;20024;-47
2023/02/09 00:54:26;;;;;;;12.40;7.13;;;;;;;;;;5086330;28;20024;-48
2023/02/09 00:56:52;;;;;;;12.77;7.38;;;;;;;;;;5085935;28;20449;-48
2023/02/09 00:59:18;;;;;;;11.20;6.75;;;;;;;;;;5085736;28;20101;-48
2023/02/09 01:01:44;;;;;;;12.23;6.70;;;;;;;;;;5085942;28;20032;-49
2023/02/09 01:04:10;;;;;;;12.05;7.18;;;;;;;;;;5085580;28;20444;-46
2023/02/09 06:12:42;;;;;;;14.07;8.55;;;;;;;;;;5083856;28;20036;-46
2023/02/09 06:15:09;;;;;;;16.48;8.52;;;;;;;;;;5087481;28;20054;-46
2023/02/09 06:17:35;;;;;;;16.20;8.45;;;;;;;;;;5069161;28;20507;-45
2023/02/09 06:20:01;;;;;;;15.80;9.25;;;;;;;;;;5087409;28;20061;-47
2023/02/09 06:22:30;;;;;;;18.38;9.60;;;;;;;;;;5087010;28;20507;-46
2023/02/09 06:24:56;;;;;;;15.55;8.80;;;;;;;;;;5087353;28;20487;-45
2023/02/09 06:27:22;;;;;;;18.08;8.80;;;;;;;;;;5087300;28;20077;-45
2023/02/09 06:29:48;;;;;;;16.63;9.68;;;;;;;;;;5078818;28;20078;-46
2023/02/09 06:32:14;;;;;;;16.42;9.05;;;;;;;;;;5087117;28;20513;-47
2023/02/09 06:34:40;;;;;;;18.67;9.48;;;;;;;;;;5087389;28;20036;-48
2023/02/09 06:37:06;;;;;;;18.75;10.30;;;;;;;;;;5087181;28;20024;-46
2023/02/09 06:39:32;;;;;;;17.50;9.95;;;;;;;;;;5087667;28;20028;-46
2023/02/09 06:41:58;;;;;;;17.35;10.20;;;;;;;;;;5086728;28;20117;-46
2023/02/09 06:44:24;;;;;;;17.58;10.20;;;;;;;;;;5086723;28;20107;-46
2023/02/09 06:46:50;;;;;;;19.67;11.07;;;;;;;;;;5087223;28;20020;-47
2023/02/09 06:49:17;;;;;;;20.75;11.07;;;;;;;;;;5087106;28;20490;-46
2023/02/09 06:51:43;;;;;;;20.45;11.38;;;;;;;;;;5086838;28;20028;-46
2023/02/09 06:54:09;;;;;;;19.98;10.52;;;;;;;;;;5086966;28;20113;-47
2023/02/09 06:56:35;;;;;;;19.27;11.10;;;;;;;;;;5086872;28;20059;-48
2023/02/09 06:59:02;;;;;;;19.83;10.77;;;;;;;;;;5086738;28;20036;-48
2023/02/09 07:01:28;;;;;;;19.50;10.98;;;;;;;;;;5079100;28;20107;-45
2023/02/09 07:03:54;;;;;;;20.35;11.50;;;;;;;;;;5087162;28;20245;-45
2023/02/09 07:06:20;;;;;;;16.80;9.82;;;;;;;;;;5087191;28;20032;-46
2023/02/09 07:08:48;;;;;;;19.13;10.95;;;;;;;;;;5086400;28;20055;-46
2023/02/09 07:11:15;;;;;;;19.65;11.57;;;;;;;;;;5086215;28;20117;-46
2023/02/09 07:13:41;;;;;;;21.83;12.27;;;;;;;;;;5087058;28;20050;-45
2023/02/09 07:16:09;;;;;;;21.70;12.48;;;;;;;;;;5088024;28;20024;-46
2023/02/09 07:18:35;;;;;;;23.98;12.70;;;;;;;;;;5088491;28;20115;-47
2023/02/09 07:21:05;;;;;;;26.05;12.88;;;;;;;;;;5082173;28;20394;-45
2023/02/09 07:23:31;;;;;;;25.33;14.10;;;;;;;;;;5085008;28;20362;-45
2023/02/09 07:26:01;;;;;;;26.02;14.10;;;;;;;;;;5081519;28;20105;-46
2023/02/09 07:28:27;;;;;;;23.48;13.77;;;;;;;;;;5085443;28;20024;-45
2023/02/09 07:30:53;;;;;;;25.27;14.10;;;;;;;;;;5080594;28;20494;-48
2023/02/09 07:33:20;;;;;;;26.00;14.23;;;;;;;;;;5085061;28;20027;-46
2023/02/09 07:35:47;;;;;;;26.77;14.93;;;;;;;;;;5078600;28;20028;-46
2023/02/09 07:38:13;;;;;;;25.80;14.75;;;;;;;;;;5082642;28;20024;-46
2023/02/09 07:40:39;;;;;;;25.00;13.68;;;;;;;;;;5079506;28;20095;-49
2023/02/09 07:43:05;;;;;;;25.75;14.43;;;;;;;;;;5084264;28;20039;-50
2023/02/09 07:45:32;;;;;;;25.95;14.20;;;;;;;;;;5082617;28;20105;-47
2023/02/09 07:47:58;;;;;;;26.52;14.50;;;;;;;;;;5086347;28;20020;-51
2023/02/09 07:50:24;;;;;;;26.27;14.98;;;;;;;;;;5085162;28;20495;-48
2023/02/09 07:52:52;;;;;;;24.08;13.80;;;;;;;;;;5086945;28;20028;-49
2023/02/09 07:55:18;;;;;;;25.27;14.23;;;;;;;;;;5078931;28;20024;-50
2023/02/09 07:57:44;;;;;;;23.50;13.50;;;;;;;;;;5082943;28;20036;-49
2023/02/09 08:00:11;;;;;;;23.90;13.70;;;;;;;;;;5085031;28;20044;-48
2023/02/09 08:02:37;;;;;;;22.92;13.15;;;;;;;;;;5079025;28;20480;-46
2023/02/09 08:05:04;;;;;;;23.48;13.63;;;;;;;;;;5087485;28;20052;-46
2023/02/09 08:07:31;;;;;;;28.70;15.43;;;;;;;;;;5078566;28;20495;-46
2023/02/09 08:09:57;;;;;;;26.30;15.05;;;;;;;;;;5085715;28;20023;-46
2023/02/09 08:12:58;;;;;;;29.13;15.48;;;;;;;;;;5083724;28;20510;-48
2023/02/09 08:15:11;;;;;;;26.35;15.10;;;;;;;;;;5086115;28;20144;-45
2023/02/09 08:17:37;;;;;;;26.55;14.90;;;;;;;;;;5083313;28;20474;-47
2023/02/09 08:20:06;;;;;;;26.65;14.32;;;;;;;;;;5077548;28;20388;-47
2023/02/09 08:22:34;;;;;;;24.70;13.65;;;;;;;;;;5081701;28;20024;-49
2023/02/09 08:25:01;;;;;;;21.00;12.13;;;;;;;;;;5078583;28;20128;-49
2023/02/09 08:27:27;;;;;;;21.63;13.07;;;;;;;;;;5083879;28;20034;-49
2023/02/09 08:29:54;;;;;;;21.10;12.43;;;;;;;;;;5081607;28;20044;-47
2023/02/09 08:32:20;;;;;;;21.60;13.20;;;;;;;;;;5074139;28;20742;-50
2023/02/09 08:34:46;;;;;;;21.13;12.27;;;;;;;;;;5084214;28;20127;-47
2023/02/09 08:37:12;;;;;;;23.67;12.32;;;;;;;;;;5082852;28;20036;-46
2023/02/09 08:39:38;;;;;;;21.38;12.77;;;;;;;;;;5076519;28;20055;-46
2023/02/09 08:42:04;;;;;;;19.05;10.88;;;;;;;;;;5082241;28;20495;-47
2023/02/09 08:44:30;;;;;;;21.25;11.38;;;;;;;;;;5085214;28;20020;-47
2023/02/09 08:46:56;;;;;;;19.17;10.55;;;;;;;;;;5055405;28;20463;-47
2023/02/09 08:49:23;;;;;;;21.45;12.07;;;;;;;;;;5079653;28;20016;-46
2023/02/09 08:51:49;;;;;;;20.70;11.68;;;;;;;;;;5081198;28;20059;-46
2023/02/09 08:54:15;;;;;;;21.33;11.30;;;;;;;;;;5084207;28;20035;-47
2023/02/09 08:56:43;;;;;;;20.60;11.85;;;;;;;;;;5082373;28;20034;-46
2023/02/09 08:59:09;;;;;;;21.67;12.30;;;;;;;;;;5079629;28;20199;-47
2023/02/09 09:01:35;;;;;;;22.25;12.23;;;;;;;;;;5077592;28;20574;-47
2023/02/09 09:04:01;;;;;;;21.98;12.35;;;;;;;;;;5082936;28;20024;-46
2023/02/09 09:06:27;;;;;;;21.63;12.20;;;;;;;;;;5075788;28;20024;-46
2023/02/09 09:08:53;;;;;;;21.13;12.18;;;;;;;;;;5074496;28;20552;-48
2023/02/09 09:11:20;;;;;;;21.10;12.27;;;;;;;;;;5083356;28;20461;-46
2023/02/09 09:13:47;;;;;;;21.35;12.02;;;;;;;;;;5084292;28;20047;-47
2023/02/09 09:16:18;;;;;;;19.88;11.82;;;;;;;;;;5074487;28;20075;-47
2023/02/09 09:18:44;;;;;;;20.45;12.27;;;;;;;;;;5074551;28;20058;-46
2023/02/09 09:21:11;;;;;;;21.42;12.50;;;;;;;;;;5061840;28;20067;-46
2023/02/09 09:23:38;;;;;;;20.27;12.20;;;;;;;;;;5090203;28;20028;-47
2023/02/09 09:26:04;;;;;;;19.52;11.50;;;;;;;;;;5076872;28;20138;-46
2023/02/09 09:28:30;;;;;;;20.20;12.20;;;;;;;;;;5087698;28;20081;-46
2023/02/09 09:30:58;;;;;;;20.10;11.88;;;;;;;;;;5087351;28;20502;-47
2023/02/09 09:33:24;;;;;;;23.38;13.02;;;;;;;;;;5086632;28;20050;-46
2023/02/09 09:35:51;;;;;;;24.52;14.60;;;;;;;;;;5087700;28;20470;-50
2023/02/09 09:38:17;;;;;;;24.77;13.73;;;;;;;;;;5082291;28;20030;-46
2023/02/09 09:40:44;;;;;;;25.88;15.07;;;;;;;;;;5087019;28;20036;-50
2023/02/09 09:43:29;;;;;;;24.88;14.02;;;;;;;;;;5087049;28;20040;-49
2023/02/09 09:45:57;;;;;;;25.95;15.27;;;;;;;;;;5086933;28;20039;-46
2023/02/09 09:48:25;;;;;;;22.88;13.70;;;;;;;;;;5087529;28;20554;-47
2023/02/09 09:51:06;;;;;;;20.90;13.07;;;;;;;;;;5087578;28;20062;-48
2023/02/09 09:53:34;;;;;;;20.00;12.48;;;;;;;;;;5087165;28;20055;-45
2023/02/09 09:56:03;;;;;;;19.20;11.23;;;;;;;;;;5087405;28;20027;-47
2023/02/09 09:58:30;;;;;;;20.30;11.50;;;;;;;;;;5087064;28;20491;-47
2023/02/09 10:00:56;;;;;;;19.52;11.32;;;;;;;;;;5087269;28;20120;-46
2023/02/09 10:03:23;;;;;;;19.27;11.18;;;;;;;;;;5085581;28;20028;-47
2023/02/09 10:05:51;;;;;;;17.17;10.77;;;;;;;;;;5087061;28;20515;-46
2023/02/09 10:08:36;;;;;;;16.55;9.48;;;;;;;;;;5087246;28;20368;-47
2023/02/09 10:11:02;;;;;;;15.68;9.60;;;;;;;;;;5067662;28;20480;-48
2023/02/09 10:13:34;;;;;;;15.10;9.63;;;;;;;;;;5073377;28;20051;-47
2023/02/09 10:16:01;;;;;;;15.05;9.02;;;;;;;;;;5066145;28;20515;-46
2023/02/09 10:18:29;;;;;;;13.20;8.25;;;;;;;;;;5066607;28;20028;-47
2023/02/09 10:21:01;;;;;;;12.85;8.40;;;;;;;;;;5066680;28;20648;-47
2023/02/09 10:23:37;;;;;;;14.30;7.35;;;;;;;;;;5071713;28;20088;-46
2023/02/09 10:26:07;;;;;;;11.45;6.90;;;;;;;;;;5074601;28;20048;-47
2023/02/09 10:28:41;;;;;;;13.77;7.88;;;;;;;;;;5085994;28;20028;-47
2023/02/09 10:31:14;;;;;;;11.45;7.53;;;;;;;;;;5083960;28;20032;-46
2023/02/09 10:33:42;;;;;;;12.55;7.22;;;;;;;;;;5086203;28;20093;-47
2023/02/09 10:36:20;;;;;;;10.00;6.57;;;;;;;;;;5086788;28;20411;-46
2023/02/09 10:38:46;;;;;;;12.77;7.63;;;;;;;;;;5086600;28;20545;-48
2023/02/09 10:41:13;;;;;;;12.60;7.95;;;;;;;;;;5086205;28;20138;-49
2023/02/09 10:43:39;;;;;;;14.20;8.38;;;;;;;;;;5086121;28;20032;-46
2023/02/09 10:46:11;;;;;;;16.02;9.20;;;;;;;;;;5086448;28;20028;-46
2023/02/09 10:48:42;;;;;;;15.63;8.77;;;;;;;;;;5086271;28;20020;-49
2023/02/09 10:51:30;;;;;;;13.00;7.78;;;;;;;;;;5085307;28;20028;-46
2023/02/09 10:54:01;;;;;;;14.38;7.72;;;;;;;;;;5082515;28;20081;-47
2023/02/09 10:56:42;;;;;;;13.25;8.07;;;;;;;;;;5085183;28;20039;-47
2023/02/09 10:59:19;;;;;;;12.85;8.23;;;;;;;;;;5086914;28;20108;-47
2023/02/09 11:01:53;;;;;;;11.18;7.18;;;;;;;;;;5086052;28;20035;-50
2023/02/09 11:04:20;;;;;;;11.73;6.82;;;;;;;;;;5086546;28;20479;-45
2023/02/09 11:07:00;;;;;;;10.93;6.72;;;;;;;;;;5077737;28;20032;-48
2023/02/09 11:09:27;;;;;;;12.85;7.10;;;;;;;;;;5084067;28;20029;-46
2023/02/09 11:11:53;;;;;;;10.38;6.40;;;;;;;;;;5079167;28;20032;-46
2023/02/09 11:14:20;;;;;;;9.23;5.82;;;;;;;;;;5075090;28;20028;-47
2023/02/09 11:16:52;;;;;;;10.70;5.78;;;;;;;;;;5081293;28;20752;-50
2023/02/09 11:19:27;;;;;;;6.85;4.75;;;;;;;;;;5076210;28;20048;-47
2023/02/09 11:22:11;;;;;;;7.72;4.47;;;;;;;;;;5083084;28;20032;-49
2023/02/09 11:24:46;;;;;;;6.77;4.27;;;;;;;;;;5085670;28;20027;-47
2023/02/09 11:27:20;;;;;;;6.65;4.43;;;;;;;;;;5086130;28;20115;-49
2023/02/09 11:29:51;;;;;;;6.20;4.22;;;;;;;;;;5086361;28;20035;-51
2023/02/09 11:32:17;;;;;;;7.80;4.55;;;;;;;;;;5084654;28;20028;-46
2023/02/09 11:34:49;;;;;;;7.28;4.15;;;;;;;;;;5081761;28;20093;-48
2023/02/09 11:37:15;;;;;;;7.20;4.53;;;;;;;;;;5085544;28;20028;-47
2023/02/09 11:39:47;;;;;;;8.20;5.03;;;;;;;;;;5086027;28;20077;-48
2023/02/09 11:45:07;;;;;;;9.57;6.05;;;;;;;;;;5078470;28;20497;-47
2023/02/09 11:47:44;;;;;;;9.40;6.03;;;;;;;;;;5086070;28;20043;-46
2023/02/09 11:50:16;;;;;;;10.95;6.78;;;;;;;;;;5072924;28;20028;-47
2023/02/09 11:52:46;;;;;;;10.73;7.03;;;;;;;;;;5082692;28;20036;-47
2023/02/09 11:55:32;;;;;;;10.63;6.07;;;;;;;;;;5082499;28;20028;-46
2023/02/09 11:58:16;;;;;;;8.45;5.78;;;;;;;;;;5078502;28;20038;-49
2023/02/09 12:00:47;;;;;;;8.85;5.53;;;;;;;;;;5086262;28;20039;-50
2023/02/09 12:03:13;;;;;;;8.77;5.50;;;;;;;;;;5085116;28;20042;-49
2023/02/09 12:05:41;;;;;;;10.75;6.53;;;;;;;;;;5085970;28;20026;-49
2023/02/09 12:08:19;;;;;;;9.65;5.85;;;;;;;;;;5081406;28;20029;-48
2023/02/09 12:10:45;;;;;;;8.68;5.75;;;;;;;;;;5074721;28;20085;-49
2023/02/09 12:13:11;;;;;;;8.77;5.80;;;;;;;;;;5087718;28;20024;-47
2023/02/09 12:15:40;;;;;;;9.48;5.97;;;;;;;;;;5074262;28;20043;-47
2023/02/09 12:18:26;;;;;;;8.43;5.38;;;;;;;;;;5082256;28;20039;-49
2023/02/09 12:20:54;;;;;;;9.13;5.57;;;;;;;;;;5082599;28;20044;-50
2023/02/09 12:23:30;;;;;;;7.35;4.95;;;;;;;;;;5083271;28;20513;-46
2023/02/09 12:25:58;;;;;;;9.50;5.60;;;;;;;;;;5089924;28;20031;-48
2023/02/09 12:28:27;;;;;;;7.65;5.28;;;;;;;;;;5089021;28;20082;-50
2023/02/09 12:30:53;;;;;;;8.05;5.22;;;;;;;;;;5091250;28;20028;-47
2023/02/09 12:33:28;;;;;;;7.90;4.80;;;;;;;;;;5088663;28;20028;-46
2023/02/09 12:36:02;;;;;;;6.30;4.28;;;;;;;;;;5085565;28;20406;-48
2023/02/09 12:38:47;;;;;;;6.90;4.28;;;;;;;;;;5088814;28;20035;-46
2023/02/09 12:41:13;;;;;;;5.82;4.03;;;;;;;;;;5089328;28;20063;-48
2023/02/09 12:43:40;;;;;;;5.68;3.50;;;;;;;;;;5089787;28;20025;-46
2023/02/09 12:46:12;;;;;;;5.15;3.63;;;;;;;;;;5089472;28;20036;-50
2023/02/09 12:49:05;;;;;;;4.82;3.30;;;;;;;;;;5082289;28;20025;-49
2023/02/09 12:51:54;;;;;;;6.00;3.08;;;;;;;;;;5025822;28;20091;-51
2023/02/09 12:54:39;;;;;;;5.93;3.17;;;;;;;;;;5064911;28;20063;-49
2023/02/09 12:57:14;;;;;;;5.00;3.00;;;;;;;;;;5071617;28;20613;-47
2023/02/09 13:00:02;;;;;;;4.93;2.83;;;;;;;;;;5081681;28;20027;-49
2023/02/09 13:02:28;;;;;;;3.30;2.72;;;;;;;;;;5025321;28;20097;-50
2023/02/09 13:05:00;;;;;;;3.95;3.13;;;;;;;;;;5089528;28;20565;-47
2023/02/09 13:07:35;;;;;;;4.25;2.97;;;;;;;;;;5089293;28;20056;-46
2023/02/09 13:10:21;;;;;;;4.60;2.92;;;;;;;;;;5089899;28;20028;-48
2023/02/09 13:12:53;;;;;;;3.67;2.78;;;;;;;;;;5037930;28;20055;-50
2023/02/09 13:15:19;;;;;;;4.47;2.60;;;;;;;;;;5088834;28;20414;-47
2023/02/09 13:17:45;;;;;;;4.93;3.15;;;;;;;;;;5088889;28;20460;-47
2023/02/09 13:20:14;;;;;;;4.22;3.05;;;;;;;;;;5088249;28;20107;-49
2023/02/09 13:22:49;;;;;;;6.00;3.72;;;;;;;;;;5084501;28;20024;-47
2023/02/09 13:25:21;;;;;;;5.78;3.70;;;;;;;;;;5074268;28;20072;-49
2023/02/09 13:27:48;;;;;;;5.57;3.28;;;;;;;;;;5087866;28;20706;-46
2023/02/09 13:30:31;;;;;;;4.57;2.80;;;;;;;;;;5087163;28;20031;-50
2023/02/09 13:33:15;;;;;;;4.85;3.00;;;;;;;;;;5089032;28;20040;-47
2023/02/09 13:35:41;;;;;;;;;;;;;;;;;;5088071;28;20027;-47
2023/02/09 13:38:19;;;;;;;4.50;2.92;;;;;;;;;;5086892;28;19912;-47
2023/02/09 13:40:49;;;;;;;4.43;2.80;;;;;;;;;;5087306;28;20028;-50
2023/02/09 13:43:17;;;;;;;5.30;3.00;;;;;;;;;;5081537;28;20478;-47
2023/02/09 13:45:50;;;;;;;3.70;2.60;;;;;;;;;;5087935;28;20063;-50
2023/02/09 13:48:36;;;;;;;4.15;2.80;;;;;;;;;;5088320;28;20024;-50
2023/02/09 13:51:22;;;;;;;6.88;4.60;;;;;;;;;;5089296;28;20032;-48
2023/02/09 13:53:55;;;;;;;6.80;4.20;;;;;;;;;;5085029;28;20475;-48
2023/02/09 13:56:22;;;;;;;7.50;4.43;;;;;;;;;;5088329;28;20118;-48
2023/02/09 13:58:48;;;;;;;6.90;3.95;;;;;;;;;;5077183;28;20081;-48
2023/02/09 14:01:17;;;;;;;7.18;3.97;;;;;;;;;;5088450;28;20119;-48
2023/02/09 14:03:54;;;;;;;7.30;4.05;;;;;;;;;;5070082;28;20042;-48
2023/02/09 14:06:35;;;;;;;5.85;4.22;;;;;;;;;;5084144;28;20093;-48
2023/02/09 14:09:02;;;;;;;5.70;4.10;;;;;;;;;;5079318;28;20042;-49
2023/02/09 14:11:36;;;;;;;5.78;3.92;;;;;;;;;;5087826;28;20115;-50
2023/02/09 14:14:04;;;;;;;7.55;5.40;;;;;;;;;;5076796;28;20032;-47
2023/02/09 14:16:32;;;;;;;7.10;4.55;;;;;;;;;;5088136;28;20066;-46
2023/02/09 14:18:58;;;;;;;6.25;4.03;;;;;;;;;;5087155;28;20093;-48
2023/02/09 14:21:33;;;;;;;6.95;3.55;;;;;;;;;;5087570;28;20039;-49
2023/02/09 14:23:59;;;;;;;4.25;3.35;;;;;;;;;;5081778;28;20032;-47
2023/02/09 14:26:48;;;;;;;4.38;2.85;;;;;;;;;;5087963;28;20035;-47
2023/02/09 14:29:14;;;;;;;3.83;2.53;;;;;;;;;;5064208;28;20111;-47
2023/02/09 14:31:44;;;;;;;5.05;3.22;;;;;;;;;;5087276;28;20464;-50
2023/02/09 14:34:22;;;;;;;4.30;2.55;;;;;;;;;;5085166;28;20028;-48
2023/02/09 14:36:56;;;;;;;4.57;2.58;;;;;;;;;;5079367;28;20093;-47
2023/02/09 14:39:22;;;;;;;4.28;2.40;;;;;;;;;;5087373;28;20048;-47
2023/02/09 14:42:07;;;;;;;4.07;2.67;;;;;;;;;;5087319;28;20495;-48
2023/02/09 14:44:43;;;;;;;2.88;2.17;;;;;;;;;;5087940;28;20028;-50
2023/02/09 14:47:25;;;;;;;3.05;2.25;;;;;;;;;;5087805;28;20389;-47
2023/02/09 14:49:51;;;;;;;3.88;2.35;;;;;;;;;;5087414;28;20024;-49
2023/02/09 14:52:17;;;;;;;3.50;2.25;;;;;;;;;;5087764;28;20553;-45
2023/02/09 14:54:47;;;;;;;3.45;2.40;;;;;;;;;;5087451;28;20435;-49
2023/02/09 14:57:13;;;;;;;3.80;2.60;;;;;;;;;;5070468;28;20117;-50
2023/02/09 14:59:40;;;;;;;3.83;2.35;;;;;;;;;;5075653;28;20033;-48
2023/02/09 15:02:17;;;;;;;3.58;2.47;;;;;;;;;;5076091;28;20020;-47
2023/02/09 15:04:44;;;;;;;3.80;2.30;;;;;;;;;;5087403;28;20544;-48
2023/02/09 15:07:11;;;;;;;4.20;2.47;;;;;;;;;;5087311;28;20013;-47
2023/02/09 15:09:38;;;;;;;4.80;2.75;;;;;;;;;;5086457;28;20059;-46
2023/02/09 15:12:05;;;;;;;3.40;2.17;;;;;;;;;;5077845;28;20028;-50
2023/02/09 15:14:41;;;;;;;3.85;2.40;;;;;;;;;;5085178;28;20046;-46
2023/02/09 15:17:17;;;;;;;3.67;2.00;;;;;;;;;;5087122;28;20062;-48
2023/02/09 15:19:43;;;;;;;3.10;2.22;;;;;;;;;;5087202;28;20040;-46
2023/02/09 15:22:13;;;;;;;3.47;2.40;;;;;;;;;;5087428;28;20433;-46
2023/02/09 15:24:40;;;;;;;5.57;2.70;;;;;;;;;;5070216;28;20020;-46
2023/02/09 15:27:10;;;;;;;4.13;2.35;;;;;;;;;;5084298;28;20027;-48
2023/02/09 15:29:36;;;;;;;3.55;1.92;;;;;;;;;;5075462;28;20116;-48
2023/02/09 15:32:02;;;;;;;3.83;2.45;;;;;;;;;;5086924;28;20035;-47
2023/02/09 15:34:28;;;;;;;3.85;2.53;;;;;;;;;;5086659;28;20137;-48
2023/02/09 15:36:54;;;;;;;4.22;2.58;;;;;;;;;;5084952;28;20028;-48
2023/02/09 15:39:29;;;;;;;4.10;2.20;;;;;;;;;;5075748;28;20047;-47
2023/02/09 15:50:09;;;;;;;3.42;2.28;;;;;;;;;;5077049;28;20503;-50
2023/02/09 15:52:35;;;;;;;4.53;2.50;;;;;;;;;;5085913;28;20501;-50
2023/02/09 15:55:02;;;;;;;3.17;2.33;;;;;;;;;;5085386;28;20046;-48
2023/02/09 15:57:28;;;;;;;3.58;2.80;;;;;;;;;;5079819;28;20036;-47
2023/02/09 15:59:54;;;;;;;2.53;2.10;;;;;;;;;;5088630;28;20502;-50
2023/02/09 16:02:21;;;;;;;5.15;2.47;;;;;;;;;;5080505;28;20454;-46
2023/02/09 16:04:47;;;;;;;4.75;2.50;;;;;;;;;;5086510;28;20053;-48
2023/02/09 16:07:24;;;;;;;3.60;2.20;;;;;;;;;;5083744;28;20063;-48
2023/02/09 16:09:50;;;;;;;4.15;2.40;;;;;;;;;;5066699;28;20028;-48
2023/02/09 16:12:16;;;;;;;3.17;2.10;;;;;;;;;;5079850;28;20488;-48
2023/02/09 16:14:42;;;;;;;4.35;2.35;;;;;;;;;;5087119;28;20134;-46
2023/02/09 16:17:08;;;;;;;3.67;2.50;;;;;;;;;;5080173;28;20028;-49
2023/02/09 16:19:34;;;;;;;3.28;2.33;;;;;;;;;;5079825;28;20032;-50
2023/02/09 16:22:03;;;;;;;2.80;2.30;;;;;;;;;;5076720;28;20050;-47
2023/02/09 16:24:40;;;;;;;2.97;2.25;;;;;;;;;;5080051;28;20060;-49
2023/02/09 16:27:20;;;;;;;4.97;2.50;;;;;;;;;;5082819;28;20548;-46
2023/02/09 16:29:46;;;;;;;4.63;2.63;;;;;;;;;;5083111;28;20028;-46
2023/02/09 16:32:14;;;;;;;4.43;2.40;;;;;;;;;;5085961;28;20025;-46
2023/02/09 16:34:40;;;;;;;3.63;2.45;;;;;;;;;;5078169;28;20055;-49
2023/02/09 16:37:06;;;;;;;3.92;2.55;;;;;;;;;;5076277;28;20085;-49
2023/02/09 16:39:32;;;;;;;4.05;2.75;;;;;;;;;;5081905;28;20875;-47
2023/02/09 16:41:59;;;;;;;3.80;2.55;;;;;;;;;;5055905;28;20039;-48
2023/02/09 16:44:32;;;;;;;4.28;2.50;;;;;;;;;;5081100;28;20024;-51
2023/02/09 16:46:59;;;;;;;3.72;2.60;;;;;;;;;;5083996;28;20049;-48
2023/02/09 16:49:28;;;;;;;4.82;2.97;;;;;;;;;;5075138;28;20036;-50
2023/02/09 16:51:55;;;;;;;4.45;2.78;;;;;;;;;;5087400;28;20027;-47
2023/02/09 16:54:21;;;;;;;4.82;2.72;;;;;;;;;;5083802;28;20024;-49
2023/02/09 16:56:47;;;;;;;5.38;2.90;;;;;;;;;;5088860;28;20474;-50
2023/02/09 16:59:13;;;;;;;5.28;3.15;;;;;;;;;;5081765;28;20032;-47
2023/02/09 17:01:39;;;;;;;6.30;2.90;;;;;;;;;;5086723;28;20034;-51
2023/02/09 17:04:07;;;;;;;5.47;3.08;;;;;;;;;;5070849;28;20016;-47
2023/02/09 17:06:33;;;;;;;4.53;2.92;;;;;;;;;;5089774;28;20621;-48
2023/02/09 17:09:00;;;;;;;5.22;3.05;;;;;;;;;;5088161;28;20515;-49
2023/02/09 17:11:26;;;;;;;5.70;3.55;;;;;;;;;;5085247;28;20427;-48
2023/02/09 17:13:53;;;;;;;5.72;3.42;;;;;;;;;;5086672;28;20078;-49
2023/02/09 17:16:23;;;;;;;6.53;3.70;;;;;;;;;;5088436;28;20023;-47
2023/02/09 17:18:50;;;;;;;4.40;2.95;;;;;;;;;;5087337;28;20576;-47
2023/02/09 17:21:35;;;;;;;7.05;3.70;;;;;;;;;;5085249;28;20036;-48
2023/02/09 17:24:03;;;;;;;9.30;5.53;;;;;;;;;;5086978;28;20036;-48
2023/02/09 17:26:31;;;;;;;9.93;5.22;;;;;;;;;;5085752;28;20024;-46
2023/02/09 17:28:57;;;;;;;11.30;5.90;;;;;;;;;;5083615;28;20153;-48
2023/02/09 17:31:24;;;;;;;11.85;5.82;;;;;;;;;;5085862;28;20047;-47
2023/02/09 17:33:51;;;;;;;11.35;6.20;;;;;;;;;;5089640;28;20035;-50
2023/02/09 17:36:18;;;;;;;13.98;7.43;;;;;;;;;;5106314;28;20061;-49
2023/02/09 17:38:45;;;;;;;17.83;9.18;;;;;;;;;;5086011;28;20489;-48
2023/02/09 17:41:31;;;;;;;26.02;12.02;;;;;;;;;;5086061;28;20457;-48
2023/02/09 17:44:00;;;;;;;30.60;14.20;;;;;;;;;;5085571;28;20038;-48
2023/02/09 17:46:26;;;;;;;35.17;14.77;;;;;;;;;;5086034;28;20032;-48
2023/02/09 17:48:52;;;;;;;35.50;15.32;;;;;;;;;;5084837;28;20024;-47
2023/02/09 17:51:27;;;;;;;25.95;12.70;;;;;;;;;;5081680;28;20026;-46
2023/02/09 17:53:54;;;;;;;23.42;11.07;;;;;;;;;;5080776;28;20043;-49
2023/02/09 17:56:21;;;;;;;19.52;9.43;;;;;;;;;;5084464;28;20024;-51
2023/02/09 17:58:47;;;;;;;18.92;8.88;;;;;;;;;;5084994;28;20475;-49
2023/02/09 18:01:25;;;;;;;15.75;8.25;;;;;;;;;;5084842;28;20391;-48
2023/02/09 18:03:53;;;;;;;17.60;7.53;;;;;;;;;;5083202;28;20035;-47
2023/02/09 18:06:20;;;;;;;16.38;7.32;;;;;;;;;;5083994;28;20286;-50
2023/02/09 18:08:47;;;;;;;12.05;6.32;;;;;;;;;;5084679;28;20070;-51
2023/02/09 18:11:14;;;;;;;11.30;5.82;;;;;;;;;;5084207;28;20024;-49
2023/02/09 18:13:40;;;;;;;12.07;6.22;;;;;;;;;;5083944;28;20028;-48
2023/02/09 18:16:07;;;;;;;10.27;6.28;;;;;;;;;;5084552;28;20050;-53
2023/02/09 18:18:33;;;;;;;12.82;6.78;;;;;;;;;;5096455;28;20077;-50
2023/02/09 18:20:59;;;;;;;8.77;5.65;;;;;;;;;;5097302;28;20024;-48
2023/02/09 18:23:25;;;;;;;10.55;5.72;;;;;;;;;;5065622;28;20036;-51
2023/02/09 18:25:51;;;;;;;8.88;5.03;;;;;;;;;;5083600;28;20415;-49
2023/02/09 18:28:18;;;;;;;8.82;4.85;;;;;;;;;;5083937;28;20548;-48
2023/02/09 18:30:44;;;;;;;8.65;5.68;;;;;;;;;;5084102;28;20027;-47
2023/02/09 18:33:11;;;;;;;8.95;5.35;;;;;;;;;;5084537;28;20081;-49
2023/02/09 18:35:38;;;;;;;9.43;5.03;;;;;;;;;;5083662;28;20503;-49
2023/02/09 18:38:06;;;;;;;8.68;5.13;;;;;;;;;;5090270;28;20027;-48
2023/02/09 18:40:32;;;;;;;21.42;11.38;;;;;;;;;;5083702;28;20513;-50
2023/02/09 18:42:59;;;;;;;23.95;13.50;;;;;;;;;;5082007;28;20107;-50
2023/02/09 18:45:25;;;;;;;25.45;14.30;;;;;;;;;;5065364;28;20028;-52
2023/02/09 18:47:52;;;;;;;18.17;11.02;;;;;;;;;;5083402;28;20023;-49
2023/02/09 18:50:24;;;;;;;14.90;9.13;;;;;;;;;;5082162;28;20028;-51
2023/02/09 18:52:52;;;;;;;17.50;9.23;;;;;;;;;;5082191;28;20144;-52
2023/02/09 18:55:19;;;;;;;14.38;8.32;;;;;;;;;;5083419;28;20124;-50
2023/02/09 18:57:46;;;;;;;14.27;7.22;;;;;;;;;;5083855;28;20036;-48
2023/02/09 19:00:13;;;;;;;13.07;7.10;;;;;;;;;;5082719;28;20031;-49
2023/02/09 19:02:42;;;;;;;14.57;7.25;;;;;;;;;;5081707;28;20024;-53
2023/02/09 19:05:09;;;;;;;11.63;6.35;;;;;;;;;;5081775;28;20092;-51
2023/02/09 19:07:35;;;;;;;13.02;7.30;;;;;;;;;;5081289;28;20712;-50
2023/02/09 19:10:03;;;;;;;12.68;6.72;;;;;;;;;;5082912;28;20510;-47
2023/02/09 19:12:30;;;;;;;12.77;7.10;;;;;;;;;;5081927;28;20028;-49
2023/02/09 19:14:56;;;;;;;12.55;7.60;;;;;;;;;;5081964;28;20335;-48
2023/02/09 19:17:23;;;;;;;13.23;8.15;;;;;;;;;;5082985;28;20343;-48
2023/02/09 19:19:49;;;;;;;12.80;7.75;;;;;;;;;;5078360;28;20108;-48
2023/02/09 19:22:17;;;;;;;15.82;7.63;;;;;;;;;;5086700;28;20067;-52
2023/02/09 19:24:44;;;;;;;14.35;8.77;;;;;;;;;;5086163;28;20109;-48
2023/02/09 19:27:11;;;;;;;16.52;9.02;;;;;;;;;;5086974;28;20209;-52
2023/02/09 19:29:40;;;;;;;16.67;9.57;;;;;;;;;;5087295;28;20047;-51
2023/02/09 19:32:06;;;;;;;15.32;8.90;;;;;;;;;;5079576;28;20036;-50
2023/02/09 19:34:35;;;;;;;12.70;7.90;;;;;;;;;;5068965;28;20031;-50
2023/02/09 19:37:01;;;;;;;12.23;7.50;;;;;;;;;;5087432;28;20036;-52
2023/02/09 19:39:31;;;;;;;14.45;8.57;;;;;;;;;;5086497;28;20032;-49
2023/02/09 19:41:57;;;;;;;15.25;7.95;;;;;;;;;;5086907;28;20064;-50
2023/02/09 19:44:23;;;;;;;12.55;7.18;;;;;;;;;;5087391;28;20529;-53
2023/02/09 19:46:50;;;;;;;11.73;7.03;;;;;;;;;;5086692;28;20035;-52
2023/02/09 19:49:16;;;;;;;12.48;6.45;;;;;;;;;;5087203;28;20036;-48
2023/02/09 19:51:42;;;;;;;10.73;6.07;;;;;;;;;;5083095;28;20025;-51
2023/02/09 19:54:09;;;;;;;9.48;6.38;;;;;;;;;;5087236;28;20038;-48
2023/02/09 19:56:36;;;;;;;9.43;5.70;;;;;;;;;;5087791;28;20514;-48
2023/02/09 19:59:02;;;;;;;10.20;5.85;;;;;;;;;;5086991;28;20136;-51
2023/02/09 20:01:30;;;;;;;13.95;7.25;;;;;;;;;;5086751;28;20024;-51
2023/02/09 20:03:57;;;;;;;14.98;7.57;;;;;;;;;;5085576;28;20028;-50